sensor_id;sensor_type;location;lat;lon;timestamp;pressure;altitude;pressure_sealevel;temperature;humidity
34931;BME280;21134;49.646;8.560;2022-12-18T00:02:04;101952.41;;;-7.13;100.00
34931;BME280;21134;49.646;8.560;2022-12-18T00:04:30;101952.69;;;-7.10;100.00
34931;BME280;21134;49.646;8.560;2022-12-18T00:06:57;101946.25;;;-7.16;100.00
34931;BME280;21134;49.646;8.560;2022-12-18T00:09:24;101944.22;;;-7.20;100.00
34931;BME280;21134;49.646;8.560;2022-12-18T00:11:50;101945.81;;;-7.12;100.00
34931;BME280;21134;49.646;8.560;2022-12-18T00:14:17;101946.09;;;-7.18;100.00
34931;BME280;21134;49.646;8.560;2022-12-18T00:16:45;101950.94;;;-7.19;100.00
34931;BME280;21134;49.646;8.560;2022-12-18T00:19:12;101942.78;;;-7.27;100.00
34931;BME280;21134;49.646;8.560;2022-12-18T00:21:40;101942.06;;;-7.35;100.00
34931;BME280;21134;49.646;8.560;2022-12-18T00:24:07;101942.63;;;-7.29;100.00
34931;BME280;21134;49.646;8.560;2022-12-18T00:26:35;101939.69;;;-7.16;100.00
34931;BME280;21134;49.646;8.560;2022-12-18T00:29:04;101942.34;;;-7.23;100.00
34931;BME280;21134;49.646;8.560;2022-12-18T00:31:31;101944.66;;;-7.16;100.00
34931;BME280;21134;49.646;8.560;2022-12-18T00:33:59;101954.59;;;-7.07;100.00
34931;BME280;21134;49.646;8.560;2022-12-18T00:36:28;101962.16;;;-7.06;100.00
34931;BME280;21134;49.646;8.560;2022-12-18T00:38:56;101966.28;;;-7.06;100.00
34931;BME280;21134;49.646;8.560;2022-12-18T00:41:23;101958.69;;;-7.08;100.00
34931;BME280;21134;49.646;8.560;2022-12-18T00:44:08;101956.34;;;-7.15;100.00
34931;BME280;21134;49.646;8.560;2022-12-18T00:46:35;101960.78;;;-7.21;100.00
34931;BME280;21134;49.646;8.560;2022-12-18T00:49:03;101961.34;;;-7.23;100.00
34931;BME280;21134;49.646;8.560;2022-12-18T00:51:29;101961.66;;;-7.38;100.00
34931;BME280;21134;49.646;8.560;2022-12-18T00:53:56;101955.22;;;-7.27;100.00
34931;BME280;21134;49.646;8.560;2022-12-18T00:56:23;101955.06;;;-7.37;100.00
34931;BME280;21134;49.646;8.560;2022-12-18T00:58:50;101953.03;;;-7.41;100.00
34931;BME280;21134;49.646;8.560;2022-12-18T01:01:16;101948.34;;;-7.38;100.00
34931;BME280;21134;49.646;8.560;2022-12-18T01:03:43;101947.94;;;-7.43;100.00
34931;BME280;21134;49.646;8.560;2022-12-18T01:06:13;101947.19;;;-7.42;100.00
34931;BME280;21134;49.646;8.560;2022-12-18T01:08:39;101942.78;;;-7.36;100.00
34931;BME280;21134;49.646;8.560;2022-12-18T01:11:07;101947.31;;;-7.32;100.00
34931;BME280;21134;49.646;8.560;2022-12-18T01:13:34;101946.56;;;-7.31;100.00
34931;BME280;21134;49.646;8.560;2022-12-18T01:16:00;101955.94;;;-7.19;100.00
34931;BME280;21134;49.646;8.560;2022-12-18T01:18:27;101947.28;;;-7.14;100.00
34931;BME280;21134;49.646;8.560;2022-12-18T01:20:53;101946.44;;;-7.23;99.79
34931;BME280;21134;49.646;8.560;2022-12-18T01:23:21;101948.47;;;-7.28;100.00
34931;BME280;21134;49.646;8.560;2022-12-18T01:25:48;101953.03;;;-7.24;100.00
34931;BME280;21134;49.646;8.560;2022-12-18T01:28:14;101940.31;;;-7.36;99.79
34931;BME280;21134;49.646;8.560;2022-12-18T01:30:41;101935.06;;;-7.39;99.49
34931;BME280;21134;49.646;8.560;2022-12-18T01:33:07;101948.34;;;-7.38;99.91
34931;BME280;21134;49.646;8.560;2022-12-18T01:35:40;101954.06;;;-7.39;99.69
34931;BME280;21134;49.646;8.560;2022-12-18T01:38:06;101955.97;;;-7.45;99.83
34931;BME280;21134;49.646;8.560;2022-12-18T01:40:34;101949.66;;;-7.51;99.28
34931;BME280;21134;49.646;8.560;2022-12-18T01:43:00;101945.91;;;-7.56;99.01
34931;BME280;21134;49.646;8.560;2022-12-18T01:45:28;101956.53;;;-7.57;99.26
34931;BME280;21134;49.646;8.560;2022-12-18T01:47:57;101967.66;;;-7.53;99.37
34931;BME280;21134;49.646;8.560;2022-12-18T01:50:28;101972.19;;;-7.66;99.44
34931;BME280;21134;49.646;8.560;2022-12-18T01:52:59;101977.59;;;-7.53;99.28
34931;BME280;21134;49.646;8.560;2022-12-18T01:55:29;101994.84;;;-7.37;97.61
34931;BME280;21134;49.646;8.560;2022-12-18T01:57:59;101981.13;;;-7.34;97.14
34931;BME280;21134;49.646;8.560;2022-12-18T02:00:26;101962.53;;;-7.37;96.22
34931;BME280;21134;49.646;8.560;2022-12-18T02:02:53;101973.53;;;-7.53;96.75
34931;BME280;21134;49.646;8.560;2022-12-18T02:05:26;101963.00;;;-7.59;97.02
34931;BME280;21134;49.646;8.560;2022-12-18T02:08:04;101962.97;;;-7.50;96.75
34931;BME280;21134;49.646;8.560;2022-12-18T02:10:41;101974.81;;;-7.74;96.89
34931;BME280;21134;49.646;8.560;2022-12-18T02:13:19;101962.25;;;-7.84;98.45
34931;BME280;21134;49.646;8.560;2022-12-18T02:15:51;101967.06;;;-7.94;98.85
34931;BME280;21134;49.646;8.560;2022-12-18T02:18:23;101982.84;;;-7.76;99.17
34931;BME280;21134;49.646;8.560;2022-12-18T02:20:55;101977.47;;;-7.81;97.86
34931;BME280;21134;49.646;8.560;2022-12-18T02:23:39;101975.09;;;-7.97;98.88
34931;BME280;21134;49.646;8.560;2022-12-18T02:26:16;101968.84;;;-7.84;99.07
34931;BME280;21134;49.646;8.560;2022-12-18T02:28:45;101979.94;;;-7.81;99.15
34931;BME280;21134;49.646;8.560;2022-12-18T02:31:15;101967.53;;;-7.81;98.60
34931;BME280;21134;49.646;8.560;2022-12-18T02:33:44;101966.06;;;-7.87;99.30
34931;BME280;21134;49.646;8.560;2022-12-18T02:36:12;101957.72;;;-7.79;99.01
34931;BME280;21134;49.646;8.560;2022-12-18T02:38:41;101942.41;;;-7.75;98.64
34931;BME280;21134;49.646;8.560;2022-12-18T02:41:08;101939.03;;;-7.84;98.65
34931;BME280;21134;49.646;8.560;2022-12-18T02:43:36;101945.00;;;-7.74;98.90
34931;BME280;21134;49.646;8.560;2022-12-18T02:46:31;101945.31;;;-7.70;98.88
34931;BME280;21134;49.646;8.560;2022-12-18T02:49:05;101937.97;;;-7.69;98.52
34931;BME280;21134;49.646;8.560;2022-12-18T02:51:39;101932.88;;;-7.70;97.67
34931;BME280;21134;49.646;8.560;2022-12-18T02:54:20;101926.00;;;-7.82;98.34
34931;BME280;21134;49.646;8.560;2022-12-18T02:56:52;101916.81;;;-7.91;98.16
34931;BME280;21134;49.646;8.560;2022-12-18T02:59:28;101919.75;;;-7.87;98.78
34931;BME280;21134;49.646;8.560;2022-12-18T03:02:01;101928.47;;;-7.82;98.94
34931;BME280;21134;49.646;8.560;2022-12-18T03:04:35;101938.44;;;-7.73;98.19
34931;BME280;21134;49.646;8.560;2022-12-18T03:07:09;101943.56;;;-7.72;98.72
34931;BME280;21134;49.646;8.560;2022-12-18T03:09:39;101942.41;;;-7.75;98.56
34931;BME280;21134;49.646;8.560;2022-12-18T03:12:10;101947.06;;;-7.69;98.08
34931;BME280;21134;49.646;8.560;2022-12-18T03:14:54;101945.31;;;-7.70;98.15
34931;BME280;21134;49.646;8.560;2022-12-18T03:17:25;101946.47;;;-7.76;97.50
34931;BME280;21134;49.646;8.560;2022-12-18T03:19:54;101952.34;;;-7.75;98.34
34931;BME280;21134;49.646;8.560;2022-12-18T03:22:23;101957.59;;;-7.81;97.66
34931;BME280;21134;49.646;8.560;2022-12-18T03:24:54;101962.09;;;-7.85;97.45
34931;BME280;21134;49.646;8.560;2022-12-18T03:27:24;101961.81;;;-7.80;97.79
34931;BME280;21134;49.646;8.560;2022-12-18T03:30:00;101951.03;;;-7.72;96.99
34931;BME280;21134;49.646;8.560;2022-12-18T03:32:36;101935.34;;;-7.79;96.53
34931;BME280;21134;49.646;8.560;2022-12-18T03:35:04;101934.78;;;-7.85;97.09
34931;BME280;21134;49.646;8.560;2022-12-18T03:37:32;101937.13;;;-7.87;97.58
34931;BME280;21134;49.646;8.560;2022-12-18T03:39:58;101941.66;;;-7.83;96.81
34931;BME280;21134;49.646;8.560;2022-12-18T03:42:28;101949.81;;;-7.92;96.99
34931;BME280;21134;49.646;8.560;2022-12-18T03:45:01;101962.97;;;-8.02;97.79
34931;BME280;21134;49.646;8.560;2022-12-18T03:47:35;101952.47;;;-7.91;97.34
34931;BME280;21134;49.646;8.560;2022-12-18T03:50:10;101952.31;;;-7.92;96.72
34931;BME280;21134;49.646;8.560;2022-12-18T03:52:44;101942.38;;;-7.92;97.46
34931;BME280;21134;49.646;8.560;2022-12-18T03:55:12;101947.91;;;-7.95;97.08
34931;BME280;21134;49.646;8.560;2022-12-18T03:57:40;101941.34;;;-7.95;97.51
34931;BME280;21134;49.646;8.560;2022-12-18T04:00:12;101934.63;;;-7.87;98.06
34931;BME280;21134;49.646;8.560;2022-12-18T04:02:43;101936.69;;;-7.83;98.08
34931;BME280;21134;49.646;8.560;2022-12-18T04:05:11;101930.41;;;-7.88;98.38
34931;BME280;21134;49.646;8.560;2022-12-18T04:07:39;101938.16;;;-7.93;97.75
34931;BME280;21134;49.646;8.560;2022-12-18T04:10:07;101943.84;;;-7.86;97.07
34931;BME280;21134;49.646;8.560;2022-12-18T04:12:37;101953.47;;;-7.89;97.69
34931;BME280;21134;49.646;8.560;2022-12-18T04:15:04;101940.34;;;-7.88;99.03
34931;BME280;21134;49.646;8.560;2022-12-18T04:17:32;101945.03;;;-7.91;98.64
34931;BME280;21134;49.646;8.560;2022-12-18T04:19:58;101947.63;;;-7.89;98.79
34931;BME280;21134;49.646;8.560;2022-12-18T04:22:25;101939.16;;;-7.91;98.29
34931;BME280;21134;49.646;8.560;2022-12-18T04:24:51;101943.25;;;-8.01;98.44
34931;BME280;21134;49.646;8.560;2022-12-18T04:27:18;101934.03;;;-8.02;99.24
34931;BME280;21134;49.646;8.560;2022-12-18T04:29:44;101937.41;;;-7.92;99.43
34931;BME280;21134;49.646;8.560;2022-12-18T04:32:11;101932.28;;;-7.85;97.96
34931;BME280;21134;49.646;8.560;2022-12-18T04:34:39;101933.03;;;-7.86;98.63
34931;BME280;21134;49.646;8.560;2022-12-18T04:37:05;101929.22;;;-7.74;98.80
34931;BME280;21134;49.646;8.560;2022-12-18T04:39:32;101925.59;;;-7.78;98.29
34931;BME280;21134;49.646;8.560;2022-12-18T04:42:01;101934.94;;;-7.84;98.78
34931;BME280;21134;49.646;8.560;2022-12-18T04:44:28;101937.56;;;-7.82;98.44
34931;BME280;21134;49.646;8.560;2022-12-18T04:46:54;101935.50;;;-7.86;99.05
34931;BME280;21134;49.646;8.560;2022-12-18T04:49:21;101930.84;;;-7.83;98.64
34931;BME280;21134;49.646;8.560;2022-12-18T04:51:49;101931.28;;;-7.87;99.19
34931;BME280;21134;49.646;8.560;2022-12-18T04:54:15;101930.69;;;-7.76;99.03
34931;BME280;21134;49.646;8.560;2022-12-18T04:56:42;101934.78;;;-7.77;99.27
34931;BME280;21134;49.646;8.560;2022-12-18T04:59:08;101942.53;;;-7.82;99.43
34931;BME280;21134;49.646;8.560;2022-12-18T05:01:34;101931.72;;;-7.74;98.79
34931;BME280;21134;49.646;8.560;2022-12-18T05:04:01;101933.16;;;-7.76;98.74
34931;BME280;21134;49.646;8.560;2022-12-18T05:06:28;101933.44;;;-7.82;99.22
34931;BME280;21134;49.646;8.560;2022-12-18T05:08:56;101941.06;;;-7.80;99.12
34931;BME280;21134;49.646;8.560;2022-12-18T05:11:22;101943.56;;;-7.72;99.03
34931;BME280;21134;49.646;8.560;2022-12-18T05:13:49;101947.66;;;-7.72;98.65
34931;BME280;21134;49.646;8.560;2022-12-18T05:16:15;101949.84;;;-7.75;98.86
34931;BME280;21134;49.646;8.560;2022-12-18T05:18:42;101948.53;;;-7.72;99.19
34931;BME280;21134;49.646;8.560;2022-12-18T05:21:09;101966.94;;;-7.69;98.78
34931;BME280;21134;49.646;8.560;2022-12-18T05:23:35;101963.88;;;-7.67;98.51
34931;BME280;21134;49.646;8.560;2022-12-18T05:26:05;101968.38;;;-7.63;98.31
34931;BME280;21134;49.646;8.560;2022-12-18T05:28:33;101958.91;;;-7.84;97.99
34931;BME280;21134;49.646;8.560;2022-12-18T05:31:01;101961.69;;;-7.81;98.72
34931;BME280;21134;49.646;8.560;2022-12-18T05:33:30;101953.75;;;-7.95;98.73
34931;BME280;21134;49.646;8.560;2022-12-18T05:35:58;101951.28;;;-7.95;100.00
34931;BME280;21134;49.646;8.560;2022-12-18T05:38:26;101945.59;;;-7.93;98.85
34931;BME280;21134;49.646;8.560;2022-12-18T05:40:53;101955.53;;;-7.93;99.31
34931;BME280;21134;49.646;8.560;2022-12-18T05:43:23;101952.31;;;-7.84;99.70
34931;BME280;21134;49.646;8.560;2022-12-18T05:45:51;101955.38;;;-7.95;99.23
34931;BME280;21134;49.646;8.560;2022-12-18T05:48:18;101950.53;;;-8.02;99.34
34931;BME280;21134;49.646;8.560;2022-12-18T05:50:46;101950.41;;;-8.04;100.00
34931;BME280;21134;49.646;8.560;2022-12-18T05:53:14;101942.97;;;-8.04;100.00
34931;BME280;21134;49.646;8.560;2022-12-18T05:55:41;101939.69;;;-8.20;100.00
34931;BME280;21134;49.646;8.560;2022-12-18T05:58:09;101949.34;;;-8.14;100.00
34931;BME280;21134;49.646;8.560;2022-12-18T06:00:39;101949.94;;;-8.08;100.00
34931;BME280;21134;49.646;8.560;2022-12-18T06:03:06;101956.56;;;-8.00;100.00
34931;BME280;21134;49.646;8.560;2022-12-18T06:05:35;101954.22;;;-7.90;100.00
34931;BME280;21134;49.646;8.560;2022-12-18T06:08:02;101942.66;;;-7.98;100.00
34931;BME280;21134;49.646;8.560;2022-12-18T06:10:28;101958.72;;;-7.95;100.00
34931;BME280;21134;49.646;8.560;2022-12-18T06:12:55;101955.25;;;-7.88;100.00
34931;BME280;21134;49.646;8.560;2022-12-18T06:15:21;101955.69;;;-7.83;100.00
34931;BME280;21134;49.646;8.560;2022-12-18T06:17:49;101960.38;;;-7.78;100.00
34931;BME280;21134;49.646;8.560;2022-12-18T06:20:16;101964.44;;;-7.61;100.00
34931;BME280;21134;49.646;8.560;2022-12-18T06:22:42;101961.53;;;-7.65;100.00
34931;BME280;21134;49.646;8.560;2022-12-18T06:25:09;101968.53;;;-7.70;100.00
34931;BME280;21134;49.646;8.560;2022-12-18T06:27:36;101975.84;;;-7.80;100.00
34931;BME280;21134;49.646;8.560;2022-12-18T06:30:03;101977.59;;;-7.79;100.00
34931;BME280;21134;49.646;8.560;2022-12-18T06:32:29;101977.31;;;-7.74;100.00
34931;BME280;21134;49.646;8.560;2022-12-18T06:34:57;101984.03;;;-7.73;100.00
34931;BME280;21134;49.646;8.560;2022-12-18T06:37:24;101979.22;;;-7.71;100.00
34931;BME280;21134;49.646;8.560;2022-12-18T06:39:51;101991.94;;;-7.68;100.00
34931;BME280;21134;49.646;8.560;2022-12-18T06:42:17;101984.50;;;-7.59;100.00
34931;BME280;21134;49.646;8.560;2022-12-18T06:44:44;101991.34;;;-7.65;99.94
34931;BME280;21134;49.646;8.560;2022-12-18T06:47:10;101998.78;;;-7.57;100.00
34931;BME280;21134;49.646;8.560;2022-12-18T06:49:37;101999.81;;;-7.55;98.82
34931;BME280;21134;49.646;8.560;2022-12-18T06:52:05;102003.91;;;-7.55;98.66
34931;BME280;21134;49.646;8.560;2022-12-18T06:54:31;102008.59;;;-7.58;98.56
34931;BME280;21134;49.646;8.560;2022-12-18T06:56:58;102006.56;;;-7.62;98.08
34931;BME280;21134;49.646;8.560;2022-12-18T06:59:24;102017.22;;;-7.72;98.22
34931;BME280;21134;49.646;8.560;2022-12-18T07:01:51;102025.97;;;-7.67;99.21
34931;BME280;21134;49.646;8.560;2022-12-18T07:04:17;102018.84;;;-7.55;97.89
34931;BME280;21134;49.646;8.560;2022-12-18T07:06:43;102030.53;;;-7.54;97.32
34931;BME280;21134;49.646;8.560;2022-12-18T07:09:11;102034.19;;;-7.59;97.35
34931;BME280;21134;49.646;8.560;2022-12-18T07:11:38;102034.91;;;-7.52;96.54
34931;BME280;21134;49.646;8.560;2022-12-18T07:14:04;102030.94;;;-7.67;96.49
34931;BME280;21134;49.646;8.560;2022-12-18T07:16:31;102041.47;;;-7.69;96.79
34931;BME280;21134;49.646;8.560;2022-12-18T07:18:57;102037.38;;;-7.69;97.07
34931;BME280;21134;49.646;8.560;2022-12-18T07:21:24;102035.03;;;-7.76;96.98
34931;BME280;21134;49.646;8.560;2022-12-18T07:23:51;102035.91;;;-7.84;95.96
34931;BME280;21134;49.646;8.560;2022-12-18T07:26:20;102031.06;;;-7.83;97.13
34931;BME280;21134;49.646;8.560;2022-12-18T07:28:47;102034.69;;;-7.97;96.57
34931;BME280;21134;49.646;8.560;2022-12-18T07:31:16;102046.56;;;-7.94;98.20
34931;BME280;21134;49.646;8.560;2022-12-18T07:33:44;102041.59;;;-7.94;98.21
34931;BME280;21134;49.646;8.560;2022-12-18T07:36:11;102035.56;;;-7.96;97.99
34931;BME280;21134;49.646;8.560;2022-12-18T07:38:38;102037.91;;;-7.98;98.90
34931;BME280;21134;49.646;8.560;2022-12-18T07:41:06;102028.56;;;-7.91;99.23
34931;BME280;21134;49.646;8.560;2022-12-18T07:43:35;102023.88;;;-7.88;99.02
34931;BME280;21134;49.646;8.560;2022-12-18T07:46:01;102022.44;;;-7.86;98.92
34931;BME280;21134;49.646;8.560;2022-12-18T07:48:28;102013.41;;;-7.77;98.36
34931;BME280;21134;49.646;8.560;2022-12-18T07:50:58;102016.31;;;-7.73;98.51
34931;BME280;21134;49.646;8.560;2022-12-18T07:53:25;102017.19;;;-7.81;99.01
34931;BME280;21134;49.646;8.560;2022-12-18T07:55:55;102024.34;;;-7.84;98.20
34931;BME280;21134;49.646;8.560;2022-12-18T07:58:21;102015.16;;;-7.76;98.18
34931;BME280;21134;49.646;8.560;2022-12-18T08:00:49;102027.56;;;-7.76;97.65
34931;BME280;21134;49.646;8.560;2022-12-18T08:03:16;102031.09;;;-7.74;98.33
34931;BME280;21134;49.646;8.560;2022-12-18T08:05:42;102030.66;;;-7.70;98.11
34931;BME280;21134;49.646;8.560;2022-12-18T08:08:09;102028.47;;;-7.67;98.47
34931;BME280;21134;49.646;8.560;2022-12-18T08:10:35;102028.19;;;-7.61;97.79
34931;BME280;21134;49.646;8.560;2022-12-18T08:13:03;102027.59;;;-7.59;98.32
34931;BME280;21134;49.646;8.560;2022-12-18T08:15:30;102040.91;;;-7.58;98.05
34931;BME280;21134;49.646;8.560;2022-12-18T08:17:58;102049.22;;;-7.58;97.79
34931;BME280;21134;49.646;8.560;2022-12-18T08:20:24;102049.09;;;-7.59;97.27
34931;BME280;21134;49.646;8.560;2022-12-18T08:22:50;102044.97;;;-7.67;97.78
34931;BME280;21134;49.646;8.560;2022-12-18T08:25:17;102038.69;;;-7.64;96.31
34931;BME280;21134;49.646;8.560;2022-12-18T08:27:43;102040.00;;;-7.76;96.18
34931;BME280;21134;49.646;8.560;2022-12-18T08:30:11;102049.22;;;-7.66;96.95
34931;BME280;21134;49.646;8.560;2022-12-18T08:32:37;102043.25;;;-7.68;96.52
34931;BME280;21134;49.646;8.560;2022-12-18T08:35:06;102045.72;;;-7.68;96.12
34931;BME280;21134;49.646;8.560;2022-12-18T08:37:33;102036.09;;;-7.65;97.04
34931;BME280;21134;49.646;8.560;2022-12-18T08:40:00;102038.88;;;-7.62;96.33
34931;BME280;21134;49.646;8.560;2022-12-18T08:42:26;102029.91;;;-7.69;97.40
34931;BME280;21134;49.646;8.560;2022-12-18T08:45:11;102019.41;;;-7.66;97.45
34931;BME280;21134;49.646;8.560;2022-12-18T08:47:37;102012.53;;;-7.60;97.89
34931;BME280;21134;49.646;8.560;2022-12-18T08:50:08;102013.88;;;-7.46;97.60
34931;BME280;21134;49.646;8.560;2022-12-18T08:52:36;102016.78;;;-7.42;98.06
34931;BME280;21134;49.646;8.560;2022-12-18T08:55:03;102015.75;;;-7.35;97.95
34931;BME280;21134;49.646;8.560;2022-12-18T08:57:29;102012.25;;;-7.37;98.04
34931;BME280;21134;49.646;8.560;2022-12-18T08:59:56;102015.31;;;-7.31;97.65
34931;BME280;21134;49.646;8.560;2022-12-18T09:02:22;102003.31;;;-7.35;97.92
34931;BME280;21134;49.646;8.560;2022-12-18T09:04:49;101998.22;;;-7.37;98.06
34931;BME280;21134;49.646;8.560;2022-12-18T09:07:17;101989.88;;;-7.29;98.68
34931;BME280;21134;49.646;8.560;2022-12-18T09:09:43;101978.88;;;-7.22;98.24
34931;BME280;21134;49.646;8.560;2022-12-18T09:12:10;101975.41;;;-7.24;98.31
34931;BME280;21134;49.646;8.560;2022-12-18T09:14:36;101981.94;;;-7.25;98.33
34931;BME280;21134;49.646;8.560;2022-12-18T09:17:03;101980.22;;;-7.26;98.56
34931;BME280;21134;49.646;8.560;2022-12-18T09:19:31;101989.69;;;-7.13;99.08
34931;BME280;21134;49.646;8.560;2022-12-18T09:21:57;101990.69;;;-7.02;98.78
34931;BME280;21134;49.646;8.560;2022-12-18T09:24:25;101995.38;;;-6.96;98.09
34931;BME280;21134;49.646;8.560;2022-12-18T09:26:53;101985.75;;;-7.19;97.32
34931;BME280;21134;49.646;8.560;2022-12-18T09:29:20;101994.38;;;-7.16;98.37
34931;BME280;21134;49.646;8.560;2022-12-18T09:31:46;102012.06;;;-7.13;98.26
34931;BME280;21134;49.646;8.560;2022-12-18T09:34:13;102022.72;;;-6.96;96.87
34931;BME280;21134;49.646;8.560;2022-12-18T09:36:39;102015.03;;;-7.08;97.60
34931;BME280;21134;49.646;8.560;2022-12-18T09:39:06;102006.69;;;-7.17;97.52
34931;BME280;21134;49.646;8.560;2022-12-18T09:41:40;102013.06;;;-7.02;97.49
34931;BME280;21134;49.646;8.560;2022-12-18T09:44:14;102011.03;;;-7.06;96.70
34931;BME280;21134;49.646;8.560;2022-12-18T09:46:46;102007.50;;;-6.99;96.70
34931;BME280;21134;49.646;8.560;2022-12-18T09:49:16;102016.81;;;-6.80;96.01
34931;BME280;21134;49.646;8.560;2022-12-18T09:51:46;102016.25;;;-6.77;96.05
34931;BME280;21134;49.646;8.560;2022-12-18T09:54:20;102031.16;;;-6.68;96.01
34931;BME280;21134;49.646;8.560;2022-12-18T09:56:50;102035.25;;;-6.60;95.18
34931;BME280;21134;49.646;8.560;2022-12-18T09:59:21;102035.97;;;-6.61;95.71
34931;BME280;21134;49.646;8.560;2022-12-18T10:01:49;102034.34;;;-6.61;93.98
34931;BME280;21134;49.646;8.560;2022-12-18T10:04:16;102033.44;;;-6.52;94.77
34931;BME280;21134;49.646;8.560;2022-12-18T10:06:45;102030.22;;;-6.51;94.82
34931;BME280;21134;49.646;8.560;2022-12-18T10:09:22;102029.94;;;-6.55;94.98
34931;BME280;21134;49.646;8.560;2022-12-18T10:11:59;102024.34;;;-6.43;95.34
34931;BME280;21134;49.646;8.560;2022-12-18T10:14:35;102025.19;;;-6.34;95.51
34931;BME280;21134;49.646;8.560;2022-12-18T10:17:11;102019.47;;;-6.33;94.89
34931;BME280;21134;49.646;8.560;2022-12-18T10:19:41;102030.25;;;-6.24;94.08
34931;BME280;21134;49.646;8.560;2022-12-18T10:22:21;102031.97;;;-6.14;95.00
34931;BME280;21134;49.646;8.560;2022-12-18T10:24:54;102026.25;;;-6.13;94.27
34931;BME280;21134;49.646;8.560;2022-12-18T10:27:25;102019.75;;;-6.02;93.83
34931;BME280;21134;49.646;8.560;2022-12-18T10:29:53;102020.81;;;-5.90;94.62
34931;BME280;21134;49.646;8.560;2022-12-18T10:32:21;102023.72;;;-5.86;93.86
34931;BME280;21134;49.646;8.560;2022-12-18T10:34:51;102024.00;;;-5.64;93.40
34931;BME280;21134;49.646;8.560;2022-12-18T10:37:20;102012.34;;;-5.73;91.82
34931;BME280;21134;49.646;8.560;2022-12-18T10:40:06;102010.13;;;-5.70;91.62
34931;BME280;21134;49.646;8.560;2022-12-18T10:42:34;102009.09;;;-5.72;93.08
34931;BME280;21134;49.646;8.560;2022-12-18T10:45:05;102001.50;;;-5.74;92.43
34931;BME280;21134;49.646;8.560;2022-12-18T10:47:33;101996.31;;;-5.86;93.37
34931;BME280;21134;49.646;8.560;2022-12-18T10:50:01;101995.50;;;-5.76;92.76
34931;BME280;21134;49.646;8.560;2022-12-18T10:52:27;102006.09;;;-5.59;92.68
34931;BME280;21134;49.646;8.560;2022-12-18T10:54:55;102007.22;;;-5.56;92.39
34931;BME280;21134;49.646;8.560;2022-12-18T10:57:36;102010.75;;;-5.54;91.84
34931;BME280;21134;49.646;8.560;2022-12-18T11:00:24;102009.31;;;-5.42;90.60
34931;BME280;21134;49.646;8.560;2022-12-18T11:02:51;101994.63;;;-5.39;91.75
34931;BME280;21134;49.646;8.560;2022-12-18T11:05:29;102007.38;;;-5.35;92.75
34931;BME280;21134;49.646;8.560;2022-12-18T11:07:57;102010.66;;;-5.26;92.57
34931;BME280;21134;49.646;8.560;2022-12-18T11:10:28;102009.31;;;-5.42;92.55
34931;BME280;21134;49.646;8.560;2022-12-18T11:13:14;102003.28;;;-5.25;92.60
34931;BME280;21134;49.646;8.560;2022-12-18T11:15:42;102009.84;;;-5.17;91.76
34931;BME280;21134;49.646;8.560;2022-12-18T11:18:17;102004.97;;;-5.15;91.71
34931;BME280;21134;49.646;8.560;2022-12-18T11:20:50;102009.56;;;-5.20;92.69
34931;BME280;21134;49.646;8.560;2022-12-18T11:23:19;102001.72;;;-5.14;91.29
34931;BME280;21134;49.646;8.560;2022-12-18T11:25:51;102003.88;;;-5.08;90.20
34931;BME280;21134;49.646;8.560;2022-12-18T11:28:36;101999.50;;;-5.11;92.16
34931;BME280;21134;49.646;8.560;2022-12-18T11:31:19;102004.47;;;-5.11;91.80
34931;BME280;21134;49.646;8.560;2022-12-18T11:33:51;102010.88;;;-5.04;90.78
34931;BME280;21134;49.646;8.560;2022-12-18T11:36:20;102009.56;;;-5.20;91.44
34931;BME280;21134;49.646;8.560;2022-12-18T11:38:49;102017.97;;;-5.09;92.18
34931;BME280;21134;49.646;8.560;2022-12-18T11:41:25;102014.16;;;-4.95;89.83
34931;BME280;21134;49.646;8.560;2022-12-18T11:44:20;102004.75;;;-5.08;89.91
34931;BME280;21134;49.646;8.560;2022-12-18T11:46:51;101994.22;;;-5.14;90.50
34931;BME280;21134;49.646;8.560;2022-12-18T11:49:24;101994.72;;;-5.18;90.40
34931;BME280;21134;49.646;8.560;2022-12-18T11:51:58;101987.13;;;-5.20;90.72
34931;BME280;21134;49.646;8.560;2022-12-18T11:54:25;101983.16;;;-5.07;90.50
34931;BME280;21134;49.646;8.560;2022-12-18T11:56:56;101981.00;;;-4.94;88.05
34931;BME280;21134;49.646;8.560;2022-12-18T11:59:32;101990.00;;;-5.15;89.57
34931;BME280;21134;49.646;8.560;2022-12-18T12:02:15;101984.53;;;-5.11;89.53
34931;BME280;21134;49.646;8.560;2022-12-18T12:04:55;101991.53;;;-5.07;88.96
34931;BME280;21134;49.646;8.560;2022-12-18T12:07:33;101988.25;;;-5.16;88.41
34931;BME280;21134;49.646;8.560;2022-12-18T12:10:13;101990.41;;;-5.10;89.69
34931;BME280;21134;49.646;8.560;2022-12-18T12:12:53;101978.84;;;-5.00;91.01
34931;BME280;21134;49.646;8.560;2022-12-18T12:15:32;101979.97;;;-4.96;90.84
34931;BME280;21134;49.646;8.560;2022-12-18T12:18:11;101982.56;;;-5.05;89.08
34931;BME280;21134;49.646;8.560;2022-12-18T12:20:46;101996.50;;;-4.88;89.24
34931;BME280;21134;49.646;8.560;2022-12-18T12:23:21;102000.69;;;-4.97;90.33
34931;BME280;21134;49.646;8.560;2022-12-18T12:25:53;101987.63;;;-4.84;90.26
34931;BME280;21134;49.646;8.560;2022-12-18T12:28:36;101985.53;;;-4.80;87.49
34931;BME280;21134;49.646;8.560;2022-12-18T12:31:16;101983.53;;;-4.74;88.17
34931;BME280;21134;49.646;8.560;2022-12-18T12:33:54;101989.13;;;-4.86;87.93
34931;BME280;21134;49.646;8.560;2022-12-18T12:36:32;101986.13;;;-4.82;87.63
34931;BME280;21134;49.646;8.560;2022-12-18T12:39:06;101986.81;;;-4.64;87.74
34931;BME280;21134;49.646;8.560;2022-12-18T12:41:35;101967.72;;;-4.64;88.69
34931;BME280;21134;49.646;8.560;2022-12-18T12:44:23;101971.72;;;-4.56;88.00
34931;BME280;21134;49.646;8.560;2022-12-18T12:46:55;101965.72;;;-4.58;88.53
34931;BME280;21134;49.646;8.560;2022-12-18T12:49:26;101962.38;;;-4.58;88.72
34931;BME280;21134;49.646;8.560;2022-12-18T12:52:03;101932.91;;;-4.52;88.50
34931;BME280;21134;49.646;8.560;2022-12-18T12:54:31;101931.75;;;-4.66;88.61
34931;BME280;21134;49.646;8.560;2022-12-18T12:57:04;101928.97;;;-4.69;89.62
34931;BME280;21134;49.646;8.560;2022-12-18T12:59:38;101932.66;;;-4.65;90.63
34931;BME280;21134;49.646;8.560;2022-12-18T13:02:15;101937.50;;;-4.57;89.48